createdAt,value
2017-10-13T00:01:13.183Z,19.80
2017-10-13T00:04:38.545Z,19.80
2017-10-13T00:08:04.067Z,19.70
2017-10-13T00:11:29.480Z,19.70
2017-10-13T00:14:56.522Z,19.70
2017-10-13T00:18:21.781Z,19.70
2017-10-13T00:21:47.665Z,19.70
2017-10-13T00:25:13.413Z,19.70
2017-10-13T00:28:38.801Z,19.70
2017-10-13T00:32:05.972Z,19.60
2017-10-13T00:35:31.375Z,19.60
2017-10-13T00:38:56.880Z,19.60
2017-10-13T00:42:22.605Z,19.60
2017-10-13T00:45:48.048Z,19.60
2017-10-13T00:49:13.461Z,19.60
2017-10-13T00:52:39.492Z,19.50
2017-10-13T00:56:05.459Z,19.60
2017-10-13T00:59:33.137Z,19.50
2017-10-13T01:02:59.426Z,19.60
2017-10-13T01:06:25.002Z,19.60
2017-10-13T01:09:50.597Z,19.50
2017-10-13T01:13:16.512Z,19.50
2017-10-13T01:16:42.820Z,19.50
2017-10-13T01:20:09.013Z,19.50
2017-10-13T01:23:35.413Z,19.50
2017-10-13T01:27:01.443Z,19.50
2017-10-13T01:30:28.476Z,19.50
2017-10-13T01:33:54.275Z,19.50
2017-10-13T01:37:19.913Z,19.40
2017-10-13T01:40:46.089Z,19.40
2017-10-13T01:44:11.842Z,19.40
2017-10-13T01:47:37.212Z,19.40
2017-10-13T01:51:03.045Z,19.40
2017-10-13T01:54:28.549Z,19.40
2017-10-13T01:57:53.883Z,19.40
2017-10-13T02:01:21.056Z,19.40
2017-10-13T02:04:46.753Z,19.30
2017-10-13T02:08:12.798Z,19.40
2017-10-13T02:11:38.138Z,19.40
2017-10-13T02:15:03.949Z,19.30
2017-10-13T02:18:29.439Z,19.30
2017-10-13T02:21:56.560Z,19.30
2017-10-13T02:25:22.055Z,19.30
2017-10-13T02:28:47.657Z,19.30
2017-10-13T02:32:13.313Z,19.30
2017-10-13T02:35:39.332Z,19.30
2017-10-13T02:39:05.132Z,19.30
2017-10-13T02:42:31.341Z,19.30
2017-10-13T02:45:56.769Z,19.20
2017-10-13T02:49:22.173Z,19.20
2017-10-13T02:52:48.851Z,19.20
2017-10-13T02:56:14.497Z,19.20
2017-10-13T02:59:39.875Z,19.20
2017-10-13T03:03:07.581Z,19.10
2017-10-13T03:06:33.038Z,19.10
2017-10-13T03:09:58.380Z,19.10
2017-10-13T03:13:23.865Z,19.10
2017-10-13T03:16:49.204Z,19.10
2017-10-13T03:20:16.081Z,19.00
2017-10-13T03:23:41.838Z,19.00
2017-10-13T03:27:08.405Z,19.00
2017-10-13T03:30:33.946Z,19.00
2017-10-13T03:33:59.553Z,19.00
2017-10-13T03:37:25.306Z,19.00
2017-10-13T03:40:50.605Z,19.00
2017-10-13T03:44:16.569Z,19.00
2017-10-13T03:47:42.224Z,18.90
2017-10-13T03:51:07.925Z,19.00
2017-10-13T03:54:33.293Z,19.00
2017-10-13T03:57:59.414Z,18.90
2017-10-13T04:01:25.000Z,18.90
2017-10-13T04:04:50.628Z,19.10
2017-10-13T04:11:51.598Z,19.60
2017-10-13T04:15:17.065Z,20.40
2017-10-13T04:18:42.916Z,20.90
2017-10-13T04:22:08.276Z,21.50
2017-10-13T04:25:33.575Z,22.00
2017-10-13T04:28:59.546Z,22.50
2017-10-13T04:32:25.301Z,22.90
2017-10-13T04:35:50.561Z,23.30
2017-10-13T04:39:16.050Z,23.50
2017-10-13T04:42:41.472Z,23.50
2017-10-13T04:46:07.320Z,23.50
2017-10-13T04:49:32.640Z,23.50
2017-10-13T04:52:58.060Z,23.90
2017-10-13T04:56:24.797Z,23.90
2017-10-13T04:59:49.873Z,23.90
2017-10-13T05:03:14.928Z,24.10
2017-10-13T05:06:41.472Z,24.30
2017-10-13T05:10:07.465Z,24.30
2017-10-13T05:13:37.440Z,24.30
2017-10-13T05:17:02.599Z,24.50
2017-10-13T05:24:03.465Z,24.40
2017-10-13T05:27:28.658Z,24.50
2017-10-13T05:30:56.194Z,24.50
2017-10-13T05:34:25.970Z,24.50
2017-10-13T05:37:57.406Z,24.60
2017-10-13T05:41:23.415Z,24.50
2017-10-13T05:44:52.073Z,24.40
2017-10-13T05:48:21.575Z,24.30
2017-10-13T05:51:46.637Z,24.20
2017-10-13T05:55:12.129Z,24.00
2017-10-13T05:58:46.530Z,23.70
2017-10-13T06:02:12.842Z,23.70
2017-10-13T06:05:38.565Z,23.50
2017-10-13T06:09:04.873Z,23.40
2017-10-13T06:12:29.994Z,23.30
2017-10-13T06:15:55.693Z,23.10
2017-10-13T06:19:21.884Z,22.80
2017-10-13T06:22:48.328Z,22.80
2017-10-13T06:26:13.760Z,22.60
2017-10-13T06:33:15.633Z,22.30
2017-10-13T06:36:41.336Z,22.10
2017-10-13T06:40:07.332Z,22.00
2017-10-13T06:43:33.491Z,21.80
2017-10-13T06:46:59.012Z,21.80
2017-10-13T06:50:24.586Z,21.70
2017-10-13T06:53:51.014Z,21.40
2017-10-13T06:57:16.709Z,21.40
2017-10-13T07:00:42.875Z,21.30
2017-10-13T07:04:07.985Z,21.30
2017-10-13T07:07:34.856Z,21.10
2017-10-13T07:11:02.027Z,21.10
2017-10-13T07:14:28.419Z,21.00
2017-10-13T07:18:00.665Z,21.00
2017-10-13T07:21:26.827Z,20.90
2017-10-13T07:24:52.685Z,20.90
2017-10-13T07:28:20.568Z,20.70
2017-10-13T07:31:46.117Z,20.70
2017-10-13T07:35:11.799Z,20.70
2017-10-13T07:38:42.889Z,20.60
2017-10-13T07:42:12.527Z,20.60
2017-10-13T07:45:38.414Z,20.60
2017-10-13T07:49:05.556Z,20.60
2017-10-13T07:52:32.142Z,20.50
2017-10-13T07:55:57.407Z,20.50
2017-10-13T07:59:25.281Z,20.50
2017-10-13T08:06:20.204Z,20.40
2017-10-13T08:09:46.176Z,20.40
2017-10-13T08:13:11.822Z,20.40
2017-10-13T08:16:37.205Z,20.40
2017-10-13T08:23:38.189Z,20.40
2017-10-13T08:27:10.717Z,20.40
2017-10-13T08:30:37.021Z,20.40
2017-10-13T08:34:02.238Z,20.80
2017-10-13T08:37:29.241Z,21.10
2017-10-13T08:40:55.570Z,21.20
2017-10-13T08:44:21.331Z,21.60
2017-10-13T08:47:46.411Z,21.80
2017-10-13T08:51:12.267Z,22.20
2017-10-13T08:54:37.817Z,22.20
2017-10-13T08:58:04.061Z,22.40
2017-10-13T09:05:01.030Z,22.80
2017-10-13T09:08:31.437Z,22.90
2017-10-13T09:11:56.877Z,23.00
2017-10-13T09:15:22.789Z,23.10
2017-10-13T09:18:47.972Z,23.30
2017-10-13T09:22:14.197Z,23.30
2017-10-13T09:25:39.629Z,23.20
2017-10-13T09:29:09.880Z,23.30
2017-10-13T09:36:05.217Z,23.50
2017-10-13T09:39:31.973Z,23.50
2017-10-13T09:43:01.258Z,23.40
2017-10-13T09:46:26.401Z,23.40
2017-10-13T09:53:46.833Z,23.50
2017-10-13T09:57:21.238Z,23.50
2017-10-13T10:00:46.991Z,23.50
2017-10-13T10:04:14.774Z,23.50
2017-10-13T10:07:41.227Z,23.40
2017-10-13T10:11:07.114Z,23.30
2017-10-13T10:14:32.332Z,23.20
2017-10-13T10:17:57.443Z,23.20
2017-10-13T10:21:22.516Z,23.10
2017-10-13T10:24:48.221Z,23.00
2017-10-13T10:28:14.110Z,22.70
2017-10-13T10:31:40.716Z,22.70
2017-10-13T10:35:08.855Z,22.60
2017-10-13T10:38:38.093Z,22.60
2017-10-13T10:42:12.473Z,22.50
2017-10-13T10:45:37.897Z,22.50
2017-10-13T10:49:04.830Z,22.80
2017-10-13T10:52:40.586Z,22.70
2017-10-13T10:56:05.837Z,22.70
2017-10-13T10:59:31.389Z,22.60
2017-10-13T11:02:57.274Z,22.50
2017-10-13T11:06:27.083Z,22.70
2017-10-13T11:09:52.296Z,22.80
2017-10-13T11:13:18.320Z,22.80
2017-10-13T11:16:45.838Z,22.80
2017-10-13T11:20:14.868Z,22.70
2017-10-13T11:23:41.351Z,22.70
2017-10-13T11:27:06.804Z,22.60
2017-10-13T11:30:37.036Z,22.70
2017-10-13T11:34:06.552Z,22.60
2017-10-13T11:37:32.004Z,22.50
2017-10-13T11:40:58.956Z,22.40
2017-10-13T11:44:24.026Z,22.40
2017-10-13T11:47:50.341Z,22.20
2017-10-13T11:51:15.666Z,22.20
2017-10-13T11:54:41.009Z,22.20
2017-10-13T11:58:06.962Z,22.10
2017-10-13T12:01:32.191Z,22.00
2017-10-13T12:04:57.329Z,22.00
2017-10-13T12:08:22.916Z,22.00
2017-10-13T12:11:48.535Z,22.00
2017-10-13T12:15:14.618Z,22.00
2017-10-13T12:18:44.626Z,21.90
2017-10-13T12:22:09.946Z,21.80
2017-10-13T12:25:36.891Z,21.80
2017-10-13T12:29:02.073Z,21.80
2017-10-13T12:32:27.479Z,22.10
2017-10-13T12:35:52.921Z,22.20
2017-10-13T12:39:30.396Z,22.20
2017-10-13T12:42:59.937Z,22.10
2017-10-13T12:46:25.738Z,22.10
2017-10-13T12:49:51.003Z,22.10
2017-10-13T12:53:22.193Z,22.20
2017-10-13T12:56:47.664Z,22.10
2017-10-13T13:00:16.819Z,22.10
2017-10-13T13:03:42.667Z,22.10
2017-10-13T13:07:08.428Z,22.10
2017-10-13T13:10:34.025Z,22.10
2017-10-13T13:13:59.350Z,22.40
2017-10-13T13:24:31.824Z,22.40
2017-10-13T13:27:59.765Z,22.50
2017-10-13T13:31:37.453Z,22.50
2017-10-13T13:35:06.307Z,22.50
2017-10-13T13:38:40.865Z,22.50
2017-10-13T13:42:06.375Z,22.40
2017-10-13T13:45:32.442Z,22.30
2017-10-13T13:49:02.810Z,22.30
2017-10-13T13:52:37.258Z,22.30
2017-10-13T13:56:04.529Z,22.30
2017-10-13T13:59:30.486Z,22.20
2017-10-13T14:02:57.253Z,22.00
2017-10-13T14:06:22.382Z,22.00
2017-10-13T14:09:49.312Z,22.00
2017-10-13T14:13:19.104Z,22.00
2017-10-13T14:16:45.221Z,22.00
2017-10-13T14:20:10.721Z,22.00
2017-10-13T14:23:36.828Z,22.10
2017-10-13T14:27:03.632Z,22.10
2017-10-13T14:30:29.231Z,22.10
2017-10-13T14:34:05.985Z,22.80
2017-10-13T14:37:41.489Z,22.80
2017-10-13T14:41:10.863Z,22.70
2017-10-13T14:44:37.546Z,22.90
2017-10-13T14:48:03.935Z,22.80
2017-10-13T14:51:37.094Z,23.20
2017-10-13T14:55:12.644Z,23.30
2017-10-13T14:58:38.731Z,23.30
2017-10-13T15:02:10.729Z,23.30
2017-10-13T15:09:05.981Z,23.80
2017-10-13T15:12:33.379Z,23.80
2017-10-13T15:16:02.921Z,23.90
2017-10-13T15:23:02.989Z,24.10
2017-10-13T15:26:32.738Z,24.10
2017-10-13T15:31:01.632Z,24.20
2017-10-13T15:36:35.227Z,24.40
2017-10-13T15:42:08.237Z,24.30
2017-10-13T15:45:48.339Z,24.30
2017-10-13T15:49:18.045Z,24.20
2017-10-13T15:52:43.237Z,24.20
2017-10-13T15:56:10.073Z,24.10
2017-10-13T15:59:35.914Z,24.00
2017-10-13T16:03:03.445Z,23.90
2017-10-13T16:06:30.281Z,23.70
2017-10-13T16:09:59.027Z,23.60
2017-10-13T16:13:25.353Z,23.60
2017-10-13T16:16:51.205Z,23.50
2017-10-13T16:20:29.464Z,23.40
2017-10-13T16:23:54.722Z,23.30
2017-10-13T16:27:21.426Z,23.60
2017-10-13T16:30:47.453Z,23.50
2017-10-13T16:34:17.943Z,23.50
2017-10-13T16:37:43.423Z,23.40
2017-10-13T16:41:13.303Z,23.70
2017-10-13T16:44:38.848Z,23.70
2017-10-13T16:48:05.370Z,23.70
2017-10-13T16:51:31.043Z,23.60
2017-10-13T16:55:01.445Z,23.60
2017-10-13T16:58:27.941Z,23.50
2017-10-13T17:01:58.450Z,23.50
2017-10-13T17:05:27.704Z,23.40
2017-10-13T17:08:59.433Z,23.40
2017-10-13T17:12:26.374Z,23.30
2017-10-13T17:15:53.658Z,23.20
2017-10-13T17:19:18.848Z,23.20
2017-10-13T17:22:44.654Z,23.10
2017-10-13T17:26:10.615Z,22.90
2017-10-13T17:29:35.770Z,22.90
2017-10-13T17:33:07.085Z,22.80
2017-10-13T17:36:32.261Z,22.80
2017-10-13T17:39:58.630Z,22.50
2017-10-13T17:43:25.162Z,22.50
2017-10-13T17:46:50.859Z,22.50
2017-10-13T17:50:16.621Z,22.80
2017-10-13T17:53:42.108Z,22.90
2017-10-13T17:57:12.118Z,22.80
2017-10-13T18:00:38.295Z,22.80
2017-10-13T18:04:07.103Z,22.80
2017-10-13T18:07:33.123Z,22.80
2017-10-13T18:10:58.439Z,22.80
2017-10-13T18:14:42.675Z,22.70
2017-10-13T18:18:08.416Z,22.70
2017-10-13T18:21:34.385Z,22.60
2017-10-13T18:25:00.210Z,22.50
2017-10-13T18:28:29.619Z,22.50
2017-10-13T18:32:02.440Z,22.40
2017-10-13T18:35:27.933Z,22.40
2017-10-13T18:38:54.581Z,22.30
2017-10-13T18:42:20.446Z,22.30
2017-10-13T18:45:46.383Z,22.40
2017-10-13T18:53:04.579Z,22.10
2017-10-13T18:56:30.328Z,22.00
2017-10-13T18:59:55.954Z,21.90
2017-10-13T19:03:22.052Z,21.90
2017-10-13T19:06:47.871Z,21.80
2017-10-13T19:10:13.289Z,21.80
2017-10-13T19:13:42.116Z,21.70
2017-10-13T19:17:08.383Z,21.60
2017-10-13T19:20:35.277Z,21.70
2017-10-13T19:24:01.056Z,21.60
2017-10-13T19:27:27.466Z,22.00
2017-10-13T19:30:53.262Z,22.00
2017-10-13T19:34:18.870Z,22.10
2017-10-13T19:37:44.520Z,22.10
2017-10-13T19:41:10.325Z,22.40
2017-10-13T19:44:36.268Z,22.50
2017-10-13T19:48:01.663Z,22.50
2017-10-13T19:51:27.394Z,22.60
2017-10-13T19:54:52.898Z,22.60
2017-10-13T19:58:18.458Z,22.60
2017-10-13T20:01:44.255Z,22.60
2017-10-13T20:05:09.930Z,22.60
2017-10-13T20:08:35.510Z,22.60
2017-10-13T20:12:01.351Z,22.60
2017-10-13T20:15:26.774Z,22.50
2017-10-13T20:18:54.872Z,22.50
2017-10-13T20:22:20.737Z,22.40
2017-10-13T20:25:50.516Z,22.30
2017-10-13T20:29:16.096Z,22.30
2017-10-13T20:32:41.643Z,22.20
2017-10-13T20:36:07.224Z,22.10
2017-10-13T20:39:33.386Z,22.10
2017-10-13T20:42:59.290Z,22.00
2017-10-13T20:46:27.543Z,22.00
2017-10-13T20:49:53.384Z,22.00
2017-10-13T20:53:19.212Z,21.80
2017-10-13T20:56:44.813Z,21.80
2017-10-13T21:00:10.588Z,21.70
2017-10-13T21:03:37.394Z,21.70
2017-10-13T21:07:07.413Z,21.60
2017-10-13T21:10:37.891Z,21.60
2017-10-13T21:14:03.300Z,21.50
2017-10-13T21:17:28.846Z,21.50
2017-10-13T21:20:58.719Z,21.40
2017-10-13T21:24:24.634Z,21.30
2017-10-13T21:27:50.056Z,21.30
2017-10-13T21:31:16.291Z,21.20
2017-10-13T21:34:42.042Z,21.20
2017-10-13T21:38:07.695Z,21.20
2017-10-13T21:41:33.498Z,21.20
2017-10-13T21:44:58.940Z,21.10
2017-10-13T21:48:26.283Z,21.10
2017-10-13T21:51:52.527Z,21.10
2017-10-13T21:55:18.150Z,21.00
2017-10-13T21:58:44.054Z,21.00
2017-10-13T22:02:09.984Z,21.00
2017-10-13T22:05:35.388Z,20.90
2017-10-13T22:09:00.924Z,20.90
2017-10-13T22:12:26.938Z,20.90
2017-10-13T22:15:52.292Z,20.90
2017-10-13T22:19:19.088Z,20.80
2017-10-13T22:22:44.733Z,20.80
2017-10-13T22:26:10.981Z,20.70
2017-10-13T22:29:38.288Z,20.70
2017-10-13T22:33:03.613Z,20.70
2017-10-13T22:36:29.037Z,20.70
2017-10-13T22:39:54.656Z,20.70
2017-10-13T22:43:20.540Z,20.70
2017-10-13T22:46:45.996Z,20.70
2017-10-13T22:50:11.658Z,20.70
2017-10-13T22:53:37.189Z,20.60
2017-10-13T22:57:03.585Z,20.60
2017-10-13T23:00:29.615Z,20.60
2017-10-13T23:03:55.186Z,20.60
2017-10-13T23:07:20.681Z,20.60
2017-10-13T23:10:47.219Z,20.50
2017-10-13T23:14:12.665Z,20.60
2017-10-13T23:17:37.938Z,20.50
2017-10-13T23:21:03.103Z,20.50
2017-10-13T23:24:28.581Z,20.50
2017-10-13T23:27:55.159Z,20.50
2017-10-13T23:31:20.850Z,20.50
2017-10-13T23:34:46.916Z,20.50
2017-10-13T23:38:12.886Z,20.40
2017-10-13T23:41:38.426Z,20.50
2017-10-13T23:45:04.165Z,20.50
2017-10-13T23:48:30.041Z,20.40
2017-10-13T23:51:55.700Z,20.40
2017-10-13T23:55:21.265Z,20.40
2017-10-13T23:58:46.994Z,20.40
